sensor_id;sensor_type;location;lat;lon;timestamp;P1;durP1;ratioP1;P2;durP2;ratioP2
75616;SDS011;64200;55.426;37.758;2022-11-20T00:04:52;6.80;;;3.47;;
75616;SDS011;64200;55.426;37.758;2022-11-20T00:09:52;7.63;;;4.63;;
75616;SDS011;64200;55.426;37.758;2022-11-20T00:14:53;6.30;;;3.53;;
75616;SDS011;64200;55.426;37.758;2022-11-20T00:19:53;7.15;;;3.65;;
75616;SDS011;64200;55.426;37.758;2022-11-20T00:24:54;5.90;;;2.58;;
75616;SDS011;64200;55.426;37.758;2022-11-20T00:29:55;8.32;;;4.78;;
75616;SDS011;64200;55.426;37.758;2022-11-20T00:34:55;8.82;;;3.95;;
75616;SDS011;64200;55.426;37.758;2022-11-20T00:39:57;7.10;;;3.55;;
75616;SDS011;64200;55.426;37.758;2022-11-20T00:44:58;9.83;;;4.10;;
75616;SDS011;64200;55.426;37.758;2022-11-20T00:49:58;7.68;;;4.22;;
75616;SDS011;64200;55.426;37.758;2022-11-20T00:54:59;9.00;;;4.32;;
75616;SDS011;64200;55.426;37.758;2022-11-20T00:59:59;6.95;;;3.42;;
75616;SDS011;64200;55.426;37.758;2022-11-20T01:05:00;7.83;;;4.00;;
75616;SDS011;64200;55.426;37.758;2022-11-20T01:10:00;10.13;;;5.13;;
75616;SDS011;64200;55.426;37.758;2022-11-20T01:15:01;8.00;;;4.25;;
75616;SDS011;64200;55.426;37.758;2022-11-20T01:20:02;10.80;;;5.05;;
75616;SDS011;64200;55.426;37.758;2022-11-20T01:25:02;6.72;;;3.92;;
75616;SDS011;64200;55.426;37.758;2022-11-20T01:30:03;8.63;;;4.20;;
75616;SDS011;64200;55.426;37.758;2022-11-20T01:35:04;10.35;;;4.97;;
75616;SDS011;64200;55.426;37.758;2022-11-20T01:40:05;9.52;;;4.97;;
75616;SDS011;64200;55.426;37.758;2022-11-20T01:50:44;5.55;;;2.92;;
75616;SDS011;64200;55.426;37.758;2022-11-20T01:55:48;8.00;;;4.47;;
75616;SDS011;64200;55.426;37.758;2022-11-20T02:00:51;7.82;;;4.07;;
75616;SDS011;64200;55.426;37.758;2022-11-20T02:06:10;6.75;;;3.65;;
75616;SDS011;64200;55.426;37.758;2022-11-20T02:11:18;7.65;;;3.67;;
75616;SDS011;64200;55.426;37.758;2022-11-20T02:16:26;9.75;;;4.30;;
75616;SDS011;64200;55.426;37.758;2022-11-20T02:21:33;8.52;;;4.80;;
75616;SDS011;64200;55.426;37.758;2022-11-20T02:26:40;7.93;;;4.18;;
75616;SDS011;64200;55.426;37.758;2022-11-20T02:36:45;8.40;;;4.27;;
75616;SDS011;64200;55.426;37.758;2022-11-20T02:41:46;9.65;;;5.35;;
75616;SDS011;64200;55.426;37.758;2022-11-20T02:46:47;8.35;;;4.13;;
75616;SDS011;64200;55.426;37.758;2022-11-20T02:51:48;8.93;;;4.30;;
75616;SDS011;64200;55.426;37.758;2022-11-20T02:56:48;6.60;;;4.27;;
75616;SDS011;64200;55.426;37.758;2022-11-20T03:01:49;7.63;;;4.50;;
75616;SDS011;64200;55.426;37.758;2022-11-20T03:06:49;13.10;;;5.37;;
75616;SDS011;64200;55.426;37.758;2022-11-20T03:11:50;9.00;;;5.10;;
75616;SDS011;64200;55.426;37.758;2022-11-20T03:16:51;11.57;;;5.18;;
75616;SDS011;64200;55.426;37.758;2022-11-20T03:21:52;8.23;;;4.60;;
75616;SDS011;64200;55.426;37.758;2022-11-20T03:26:52;7.40;;;4.67;;
75616;SDS011;64200;55.426;37.758;2022-11-20T03:31:53;8.82;;;4.72;;
75616;SDS011;64200;55.426;37.758;2022-11-20T03:36:53;10.23;;;5.13;;
75616;SDS011;64200;55.426;37.758;2022-11-20T03:41:54;9.23;;;4.93;;
75616;SDS011;64200;55.426;37.758;2022-11-20T03:46:55;8.87;;;4.40;;
75616;SDS011;64200;55.426;37.758;2022-11-20T03:51:55;11.47;;;5.57;;
75616;SDS011;64200;55.426;37.758;2022-11-20T03:56:56;8.07;;;4.63;;
75616;SDS011;64200;55.426;37.758;2022-11-20T04:01:56;9.95;;;4.50;;
75616;SDS011;64200;55.426;37.758;2022-11-20T04:06:57;9.00;;;4.97;;
75616;SDS011;64200;55.426;37.758;2022-11-20T04:11:57;8.60;;;4.30;;
75616;SDS011;64200;55.426;37.758;2022-11-20T04:16:58;9.05;;;4.90;;
75616;SDS011;64200;55.426;37.758;2022-11-20T04:21:58;7.37;;;4.10;;
75616;SDS011;64200;55.426;37.758;2022-11-20T04:26:59;9.50;;;5.13;;
75616;SDS011;64200;55.426;37.758;2022-11-20T04:32:00;10.57;;;4.78;;
75616;SDS011;64200;55.426;37.758;2022-11-20T04:37:01;10.07;;;4.00;;
75616;SDS011;64200;55.426;37.758;2022-11-20T04:42:01;10.65;;;5.32;;
75616;SDS011;64200;55.426;37.758;2022-11-20T04:47:20;8.85;;;4.30;;
75616;SDS011;64200;55.426;37.758;2022-11-20T04:52:21;8.02;;;3.53;;
75616;SDS011;64200;55.426;37.758;2022-11-20T04:57:22;9.77;;;4.53;;
75616;SDS011;64200;55.426;37.758;2022-11-20T05:02:22;11.60;;;4.77;;
75616;SDS011;64200;55.426;37.758;2022-11-20T05:07:23;9.90;;;4.63;;
75616;SDS011;64200;55.426;37.758;2022-11-20T05:12:24;9.90;;;5.18;;
75616;SDS011;64200;55.426;37.758;2022-11-20T05:17:24;8.77;;;4.03;;
75616;SDS011;64200;55.426;37.758;2022-11-20T05:22:25;9.13;;;4.57;;
75616;SDS011;64200;55.426;37.758;2022-11-20T05:27:25;9.98;;;5.05;;
75616;SDS011;64200;55.426;37.758;2022-11-20T05:32:26;11.20;;;5.07;;
75616;SDS011;64200;55.426;37.758;2022-11-20T05:37:26;8.63;;;4.17;;
75616;SDS011;64200;55.426;37.758;2022-11-20T05:42:29;8.13;;;3.65;;
75616;SDS011;64200;55.426;37.758;2022-11-20T05:47:31;7.38;;;4.20;;
75616;SDS011;64200;55.426;37.758;2022-11-20T05:52:33;9.82;;;5.10;;
75616;SDS011;64200;55.426;37.758;2022-11-20T05:57:34;9.43;;;4.65;;
75616;SDS011;64200;55.426;37.758;2022-11-20T06:02:34;10.40;;;5.55;;
75616;SDS011;64200;55.426;37.758;2022-11-20T06:07:36;10.52;;;5.53;;
75616;SDS011;64200;55.426;37.758;2022-11-20T06:12:36;13.00;;;5.10;;
75616;SDS011;64200;55.426;37.758;2022-11-20T06:17:37;10.07;;;4.32;;
75616;SDS011;64200;55.426;37.758;2022-11-20T06:22:37;7.87;;;4.20;;
75616;SDS011;64200;55.426;37.758;2022-11-20T06:27:38;8.43;;;4.47;;
75616;SDS011;64200;55.426;37.758;2022-11-20T06:32:38;9.93;;;4.97;;
75616;SDS011;64200;55.426;37.758;2022-11-20T06:37:39;11.60;;;6.23;;
75616;SDS011;64200;55.426;37.758;2022-11-20T06:42:39;11.10;;;5.37;;
75616;SDS011;64200;55.426;37.758;2022-11-20T06:47:40;10.15;;;4.72;;
75616;SDS011;64200;55.426;37.758;2022-11-20T06:52:41;12.07;;;5.38;;
75616;SDS011;64200;55.426;37.758;2022-11-20T06:57:41;13.18;;;6.13;;
75616;SDS011;64200;55.426;37.758;2022-11-20T07:02:42;7.30;;;4.03;;
75616;SDS011;64200;55.426;37.758;2022-11-20T07:07:42;13.97;;;5.67;;
75616;SDS011;64200;55.426;37.758;2022-11-20T07:12:48;11.18;;;5.60;;
75616;SDS011;64200;55.426;37.758;2022-11-20T07:17:50;11.95;;;5.03;;
75616;SDS011;64200;55.426;37.758;2022-11-20T07:22:54;11.48;;;5.40;;
75616;SDS011;64200;55.426;37.758;2022-11-20T07:27:58;12.65;;;6.05;;
75616;SDS011;64200;55.426;37.758;2022-11-20T07:32:59;14.43;;;6.18;;
75616;SDS011;64200;55.426;37.758;2022-11-20T07:38:00;13.02;;;5.28;;
75616;SDS011;64200;55.426;37.758;2022-11-20T07:43:00;14.40;;;6.63;;
75616;SDS011;64200;55.426;37.758;2022-11-20T07:48:01;15.20;;;7.50;;
75616;SDS011;64200;55.426;37.758;2022-11-20T07:53:02;13.57;;;6.80;;
75616;SDS011;64200;55.426;37.758;2022-11-20T07:58:04;17.23;;;7.80;;
75616;SDS011;64200;55.426;37.758;2022-11-20T08:03:05;12.40;;;7.00;;
75616;SDS011;64200;55.426;37.758;2022-11-20T08:08:06;14.30;;;7.15;;
75616;SDS011;64200;55.426;37.758;2022-11-20T08:13:08;13.45;;;6.50;;
75616;SDS011;64200;55.426;37.758;2022-11-20T08:18:27;17.05;;;8.23;;
75616;SDS011;64200;55.426;37.758;2022-11-20T08:23:28;12.95;;;6.68;;
75616;SDS011;64200;55.426;37.758;2022-11-20T08:28:28;14.33;;;7.63;;
75616;SDS011;64200;55.426;37.758;2022-11-20T08:33:29;15.23;;;7.38;;
75616;SDS011;64200;55.426;37.758;2022-11-20T08:38:32;18.77;;;8.45;;
75616;SDS011;64200;55.426;37.758;2022-11-20T08:43:33;19.08;;;9.20;;
75616;SDS011;64200;55.426;37.758;2022-11-20T08:48:33;20.10;;;9.98;;
75616;SDS011;64200;55.426;37.758;2022-11-20T08:53:34;20.20;;;8.83;;
75616;SDS011;64200;55.426;37.758;2022-11-20T08:58:34;18.48;;;9.35;;
75616;SDS011;64200;55.426;37.758;2022-11-20T09:03:35;20.98;;;9.02;;
75616;SDS011;64200;55.426;37.758;2022-11-20T09:08:36;19.90;;;8.83;;
75616;SDS011;64200;55.426;37.758;2022-11-20T09:13:36;14.40;;;7.60;;
75616;SDS011;64200;55.426;37.758;2022-11-20T09:18:37;23.98;;;9.95;;
75616;SDS011;64200;55.426;37.758;2022-11-20T09:23:38;19.50;;;8.30;;
75616;SDS011;64200;55.426;37.758;2022-11-20T09:28:39;20.13;;;9.50;;
75616;SDS011;64200;55.426;37.758;2022-11-20T09:33:40;19.83;;;8.82;;
75616;SDS011;64200;55.426;37.758;2022-11-20T09:38:40;19.15;;;8.80;;
75616;SDS011;64200;55.426;37.758;2022-11-20T09:49:15;18.92;;;8.30;;
75616;SDS011;64200;55.426;37.758;2022-11-20T09:54:31;22.10;;;8.43;;
75616;SDS011;64200;55.426;37.758;2022-11-20T10:04:43;16.80;;;7.70;;
75616;SDS011;64200;55.426;37.758;2022-11-20T10:09:54;16.13;;;7.88;;
75616;SDS011;64200;55.426;37.758;2022-11-20T10:20:27;18.58;;;9.05;;
75616;SDS011;64200;55.426;37.758;2022-11-20T10:30:40;15.20;;;8.15;;
75616;SDS011;64200;55.426;37.758;2022-11-20T10:41:06;14.52;;;6.43;;
75616;SDS011;64200;55.426;37.758;2022-11-20T10:51:42;10.20;;;5.23;;
75616;SDS011;64200;55.426;37.758;2022-11-20T11:02:34;13.18;;;7.20;;
75616;SDS011;64200;55.426;37.758;2022-11-20T11:07:40;10.63;;;6.10;;
75616;SDS011;64200;55.426;37.758;2022-11-20T11:12:43;11.43;;;5.85;;
75616;SDS011;64200;55.426;37.758;2022-11-20T11:17:46;12.30;;;6.70;;
75616;SDS011;64200;55.426;37.758;2022-11-20T11:22:51;11.70;;;6.15;;
75616;SDS011;64200;55.426;37.758;2022-11-20T11:27:56;11.10;;;6.45;;
75616;SDS011;64200;55.426;37.758;2022-11-20T11:33:05;13.93;;;6.57;;
75616;SDS011;64200;55.426;37.758;2022-11-20T11:38:12;11.30;;;6.53;;
75616;SDS011;64200;55.426;37.758;2022-11-20T11:43:18;12.82;;;6.45;;
75616;SDS011;64200;55.426;37.758;2022-11-20T11:48:41;10.02;;;5.57;;
75616;SDS011;64200;55.426;37.758;2022-11-20T11:53:41;11.13;;;5.83;;
75616;SDS011;64200;55.426;37.758;2022-11-20T11:58:52;11.18;;;5.68;;
75616;SDS011;64200;55.426;37.758;2022-11-20T12:03:59;12.10;;;6.18;;
75616;SDS011;64200;55.426;37.758;2022-11-20T12:09:07;10.20;;;5.65;;
75616;SDS011;64200;55.426;37.758;2022-11-20T12:19:35;11.15;;;6.15;;
75616;SDS011;64200;55.426;37.758;2022-11-20T12:56:53;15.20;;;7.40;;
75616;SDS011;64200;55.426;37.758;2022-11-20T13:02:58;11.38;;;6.30;;
75616;SDS011;64200;55.426;37.758;2022-11-20T13:07:37;13.70;;;7.97;;
75616;SDS011;64200;55.426;37.758;2022-11-20T13:12:43;12.88;;;6.47;;
75616;SDS011;64200;55.426;37.758;2022-11-20T13:17:57;13.80;;;7.40;;
75616;SDS011;64200;55.426;37.758;2022-11-20T13:23:00;14.00;;;7.28;;
75616;SDS011;64200;55.426;37.758;2022-11-20T13:33:28;15.07;;;7.35;;
75616;SDS011;64200;55.426;37.758;2022-11-20T13:38:55;14.00;;;7.15;;
75616;SDS011;64200;55.426;37.758;2022-11-20T13:44:04;15.13;;;8.27;;
75616;SDS011;64200;55.426;37.758;2022-11-20T13:49:10;15.50;;;8.13;;
75616;SDS011;64200;55.426;37.758;2022-11-20T13:54:43;14.57;;;8.25;;
75616;SDS011;64200;55.426;37.758;2022-11-20T14:05:22;11.70;;;7.60;;
75616;SDS011;64200;55.426;37.758;2022-11-20T14:10:25;11.73;;;6.07;;
75616;SDS011;64200;55.426;37.758;2022-11-20T14:15:29;15.93;;;7.68;;
75616;SDS011;64200;55.426;37.758;2022-11-20T14:20:31;16.77;;;8.98;;
75616;SDS011;64200;55.426;37.758;2022-11-20T14:25:32;13.60;;;7.75;;
75616;SDS011;64200;55.426;37.758;2022-11-20T14:30:43;16.33;;;7.90;;
75616;SDS011;64200;55.426;37.758;2022-11-20T14:35:47;14.82;;;7.60;;
75616;SDS011;64200;55.426;37.758;2022-11-20T14:40:49;16.63;;;7.97;;
75616;SDS011;64200;55.426;37.758;2022-11-20T14:46:08;15.68;;;8.55;;
75616;SDS011;64200;55.426;37.758;2022-11-20T14:51:10;16.30;;;8.90;;
75616;SDS011;64200;55.426;37.758;2022-11-20T14:56:12;17.05;;;9.50;;
75616;SDS011;64200;55.426;37.758;2022-11-20T15:01:29;17.80;;;8.55;;
75616;SDS011;64200;55.426;37.758;2022-11-20T15:06:30;18.08;;;8.52;;
75616;SDS011;64200;55.426;37.758;2022-11-20T15:11:32;18.90;;;9.70;;
75616;SDS011;64200;55.426;37.758;2022-11-20T15:16:35;17.25;;;8.45;;
75616;SDS011;64200;55.426;37.758;2022-11-20T15:21:35;17.95;;;8.13;;
75616;SDS011;64200;55.426;37.758;2022-11-20T15:26:37;16.90;;;9.07;;
75616;SDS011;64200;55.426;37.758;2022-11-20T15:31:40;14.95;;;8.07;;
75616;SDS011;64200;55.426;37.758;2022-11-20T15:36:43;15.60;;;8.15;;
75616;SDS011;64200;55.426;37.758;2022-11-20T15:41:44;19.15;;;10.30;;
75616;SDS011;64200;55.426;37.758;2022-11-20T15:46:44;15.32;;;8.55;;
75616;SDS011;64200;55.426;37.758;2022-11-20T15:51:47;20.98;;;11.00;;
75616;SDS011;64200;55.426;37.758;2022-11-20T15:56:49;18.02;;;9.75;;
75616;SDS011;64200;55.426;37.758;2022-11-20T16:01:52;17.73;;;8.45;;
75616;SDS011;64200;55.426;37.758;2022-11-20T16:06:52;21.63;;;9.13;;
75616;SDS011;64200;55.426;37.758;2022-11-20T16:11:53;18.35;;;8.27;;
75616;SDS011;64200;55.426;37.758;2022-11-20T16:16:54;17.27;;;8.90;;
75616;SDS011;64200;55.426;37.758;2022-11-20T16:21:54;17.37;;;9.00;;
75616;SDS011;64200;55.426;37.758;2022-11-20T16:26:55;19.17;;;8.73;;
75616;SDS011;64200;55.426;37.758;2022-11-20T16:31:56;19.60;;;9.48;;
75616;SDS011;64200;55.426;37.758;2022-11-20T16:36:57;15.65;;;8.25;;
75616;SDS011;64200;55.426;37.758;2022-11-20T16:42:03;15.90;;;8.40;;
75616;SDS011;64200;55.426;37.758;2022-11-20T16:47:04;19.40;;;8.90;;
75616;SDS011;64200;55.426;37.758;2022-11-20T16:52:05;18.83;;;9.30;;
75616;SDS011;64200;55.426;37.758;2022-11-20T16:57:07;19.63;;;10.30;;
75616;SDS011;64200;55.426;37.758;2022-11-20T17:02:08;16.55;;;8.18;;
75616;SDS011;64200;55.426;37.758;2022-11-20T17:07:09;17.77;;;9.18;;
75616;SDS011;64200;55.426;37.758;2022-11-20T17:12:11;15.85;;;7.90;;
75616;SDS011;64200;55.426;37.758;2022-11-20T17:17:12;17.05;;;9.23;;
75616;SDS011;64200;55.426;37.758;2022-11-20T17:22:12;21.30;;;8.95;;
75616;SDS011;64200;55.426;37.758;2022-11-20T17:27:13;17.95;;;8.43;;
75616;SDS011;64200;55.426;37.758;2022-11-20T17:32:14;19.73;;;7.75;;
75616;SDS011;64200;55.426;37.758;2022-11-20T17:37:14;14.63;;;7.55;;
75616;SDS011;64200;55.426;37.758;2022-11-20T17:42:15;16.58;;;8.18;;
75616;SDS011;64200;55.426;37.758;2022-11-20T17:47:28;17.13;;;7.70;;
75616;SDS011;64200;55.426;37.758;2022-11-20T17:52:29;15.00;;;7.72;;
75616;SDS011;64200;55.426;37.758;2022-11-20T17:57:30;15.85;;;7.93;;
75616;SDS011;64200;55.426;37.758;2022-11-20T18:02:49;22.88;;;9.82;;
75616;SDS011;64200;55.426;37.758;2022-11-20T18:07:51;19.55;;;9.60;;
75616;SDS011;64200;55.426;37.758;2022-11-20T18:12:52;18.27;;;8.70;;
75616;SDS011;64200;55.426;37.758;2022-11-20T18:17:53;15.15;;;8.68;;
75616;SDS011;64200;55.426;37.758;2022-11-20T18:22:54;18.98;;;9.02;;
75616;SDS011;64200;55.426;37.758;2022-11-20T18:27:54;16.90;;;8.10;;
75616;SDS011;64200;55.426;37.758;2022-11-20T18:32:55;16.08;;;8.85;;
75616;SDS011;64200;55.426;37.758;2022-11-20T18:37:56;16.23;;;8.80;;
75616;SDS011;64200;55.426;37.758;2022-11-20T18:42:56;13.32;;;7.57;;
75616;SDS011;64200;55.426;37.758;2022-11-20T18:53:16;18.17;;;8.80;;
75616;SDS011;64200;55.426;37.758;2022-11-20T18:58:17;16.08;;;8.70;;
75616;SDS011;64200;55.426;37.758;2022-11-20T19:03:17;18.48;;;9.25;;
75616;SDS011;64200;55.426;37.758;2022-11-20T19:08:18;24.52;;;10.38;;
75616;SDS011;64200;55.426;37.758;2022-11-20T19:13:19;23.80;;;10.63;;
75616;SDS011;64200;55.426;37.758;2022-11-20T19:18:19;25.55;;;11.70;;
75616;SDS011;64200;55.426;37.758;2022-11-20T19:23:20;24.63;;;11.60;;
75616;SDS011;64200;55.426;37.758;2022-11-20T19:28:21;27.88;;;12.05;;
75616;SDS011;64200;55.426;37.758;2022-11-20T19:33:23;26.42;;;12.38;;
75616;SDS011;64200;55.426;37.758;2022-11-20T19:38:24;29.05;;;11.75;;
75616;SDS011;64200;55.426;37.758;2022-11-20T19:43:24;32.28;;;13.73;;
75616;SDS011;64200;55.426;37.758;2022-11-20T19:48:25;23.40;;;11.17;;
75616;SDS011;64200;55.426;37.758;2022-11-20T19:53:28;32.40;;;12.73;;
75616;SDS011;64200;55.426;37.758;2022-11-20T19:58:29;34.58;;;12.25;;
75616;SDS011;64200;55.426;37.758;2022-11-20T20:03:30;29.50;;;12.20;;
75616;SDS011;64200;55.426;37.758;2022-11-20T20:08:31;41.20;;;15.65;;
75616;SDS011;64200;55.426;37.758;2022-11-20T20:13:31;38.60;;;14.00;;
75616;SDS011;64200;55.426;37.758;2022-11-20T20:18:32;36.08;;;13.98;;
75616;SDS011;64200;55.426;37.758;2022-11-20T20:23:33;34.95;;;12.18;;
75616;SDS011;64200;55.426;37.758;2022-11-20T20:28:35;32.72;;;11.90;;
75616;SDS011;64200;55.426;37.758;2022-11-20T20:33:36;32.75;;;12.98;;
75616;SDS011;64200;55.426;37.758;2022-11-20T20:38:39;30.23;;;12.95;;
75616;SDS011;64200;55.426;37.758;2022-11-20T20:43:40;31.13;;;11.60;;
75616;SDS011;64200;55.426;37.758;2022-11-20T20:48:59;34.17;;;11.23;;
75616;SDS011;64200;55.426;37.758;2022-11-20T20:54:00;27.88;;;10.35;;
75616;SDS011;64200;55.426;37.758;2022-11-20T20:59:02;26.33;;;11.43;;
75616;SDS011;64200;55.426;37.758;2022-11-20T21:04:03;23.90;;;10.60;;
75616;SDS011;64200;55.426;37.758;2022-11-20T21:09:06;26.60;;;11.18;;
75616;SDS011;64200;55.426;37.758;2022-11-20T21:14:06;26.45;;;11.32;;
75616;SDS011;64200;55.426;37.758;2022-11-20T21:19:07;32.55;;;12.63;;
75616;SDS011;64200;55.426;37.758;2022-11-20T21:24:07;33.00;;;12.73;;
75616;SDS011;64200;55.426;37.758;2022-11-20T21:29:08;30.60;;;10.93;;
75616;SDS011;64200;55.426;37.758;2022-11-20T21:34:09;34.83;;;12.13;;
75616;SDS011;64200;55.426;37.758;2022-11-20T21:39:12;34.33;;;12.25;;
75616;SDS011;64200;55.426;37.758;2022-11-20T21:44:14;30.45;;;11.40;;
75616;SDS011;64200;55.426;37.758;2022-11-20T21:49:14;24.75;;;11.23;;
75616;SDS011;64200;55.426;37.758;2022-11-20T21:54:17;28.38;;;11.40;;
75616;SDS011;64200;55.426;37.758;2022-11-20T21:59:17;35.40;;;11.47;;
75616;SDS011;64200;55.426;37.758;2022-11-20T22:04:18;32.20;;;11.83;;
75616;SDS011;64200;55.426;37.758;2022-11-20T22:09:19;28.50;;;10.45;;
75616;SDS011;64200;55.426;37.758;2022-11-20T22:14:19;27.10;;;9.68;;
75616;SDS011;64200;55.426;37.758;2022-11-20T22:19:20;26.38;;;11.43;;
75616;SDS011;64200;55.426;37.758;2022-11-20T22:24:22;23.60;;;10.93;;
75616;SDS011;64200;55.426;37.758;2022-11-20T22:29:22;26.38;;;10.93;;
75616;SDS011;64200;55.426;37.758;2022-11-20T22:34:23;25.50;;;10.43;;
75616;SDS011;64200;55.426;37.758;2022-11-20T22:39:23;23.38;;;10.45;;
75616;SDS011;64200;55.426;37.758;2022-11-20T22:44:24;28.05;;;12.18;;
75616;SDS011;64200;55.426;37.758;2022-11-20T22:49:25;30.73;;;11.35;;
75616;SDS011;64200;55.426;37.758;2022-11-20T22:54:25;23.47;;;10.20;;
75616;SDS011;64200;55.426;37.758;2022-11-20T22:59:26;29.67;;;10.52;;
75616;SDS011;64200;55.426;37.758;2022-11-20T23:04:26;25.63;;;10.20;;
75616;SDS011;64200;55.426;37.758;2022-11-20T23:09:27;26.20;;;10.03;;
75616;SDS011;64200;55.426;37.758;2022-11-20T23:14:27;22.55;;;10.25;;
75616;SDS011;64200;55.426;37.758;2022-11-20T23:19:28;26.33;;;10.40;;
75616;SDS011;64200;55.426;37.758;2022-11-20T23:24:28;23.60;;;10.00;;
75616;SDS011;64200;55.426;37.758;2022-11-20T23:29:29;22.90;;;10.03;;
75616;SDS011;64200;55.426;37.758;2022-11-20T23:34:30;24.38;;;9.90;;
75616;SDS011;64200;55.426;37.758;2022-11-20T23:39:30;24.38;;;9.88;;
75616;SDS011;64200;55.426;37.758;2022-11-20T23:44:31;24.63;;;9.52;;
75616;SDS011;64200;55.426;37.758;2022-11-20T23:49:32;26.92;;;10.15;;
75616;SDS011;64200;55.426;37.758;2022-11-20T23:54:32;26.87;;;9.27;;
75616;SDS011;64200;55.426;37.758;2022-11-20T23:59:33;17.80;;;8.73;;
